sensor_id;sensor_type;location;lat;lon;timestamp;P1;durP1;ratioP1;P2;durP2;ratioP2
42632;SDS011;28261;53.304;-6.284;2024-02-21T00:00:33;1.33;;;0.70;;
42632;SDS011;28261;53.304;-6.284;2024-02-21T00:02:39;3.30;;;0.90;;
42632;SDS011;28261;53.304;-6.284;2024-02-21T00:04:44;5.85;;;0.93;;
42632;SDS011;28261;53.304;-6.284;2024-02-21T00:06:48;3.95;;;0.55;;
42632;SDS011;28261;53.304;-6.284;2024-02-21T00:08:52;6.22;;;0.80;;
42632;SDS011;28261;53.304;-6.284;2024-02-21T00:10:56;3.85;;;1.27;;
42632;SDS011;28261;53.304;-6.284;2024-02-21T00:13:00;3.70;;;0.60;;
42632;SDS011;28261;53.304;-6.284;2024-02-21T00:15:04;4.22;;;1.00;;
42632;SDS011;28261;53.304;-6.284;2024-02-21T00:17:09;3.92;;;0.60;;
42632;SDS011;28261;53.304;-6.284;2024-02-21T00:19:13;6.82;;;0.85;;
42632;SDS011;28261;53.304;-6.284;2024-02-21T00:21:18;2.63;;;0.70;;
42632;SDS011;28261;53.304;-6.284;2024-02-21T00:25:25;3.42;;;0.80;;
42632;SDS011;28261;53.304;-6.284;2024-02-21T00:27:29;5.80;;;1.00;;
42632;SDS011;28261;53.304;-6.284;2024-02-21T00:29:34;2.60;;;0.57;;
42632;SDS011;28261;53.304;-6.284;2024-02-21T00:31:38;7.88;;;1.00;;
42632;SDS011;28261;53.304;-6.284;2024-02-21T00:33:41;4.35;;;0.77;;
42632;SDS011;28261;53.304;-6.284;2024-02-21T00:35:45;1.63;;;0.70;;
42632;SDS011;28261;53.304;-6.284;2024-02-21T00:37:50;4.57;;;2.08;;
42632;SDS011;28261;53.304;-6.284;2024-02-21T00:39:54;3.35;;;0.93;;
42632;SDS011;28261;53.304;-6.284;2024-02-21T00:41:57;1.65;;;0.95;;
42632;SDS011;28261;53.304;-6.284;2024-02-21T00:44:01;3.70;;;0.80;;
42632;SDS011;28261;53.304;-6.284;2024-02-21T00:46:07;2.53;;;0.77;;
42632;SDS011;28261;53.304;-6.284;2024-02-21T00:48:11;6.30;;;0.90;;
42632;SDS011;28261;53.304;-6.284;2024-02-21T00:50:15;2.25;;;0.60;;
42632;SDS011;28261;53.304;-6.284;2024-02-21T00:52:19;6.43;;;1.25;;
42632;SDS011;28261;53.304;-6.284;2024-02-21T00:54:24;1.63;;;0.45;;
42632;SDS011;28261;53.304;-6.284;2024-02-21T00:56:37;3.45;;;0.88;;
42632;SDS011;28261;53.304;-6.284;2024-02-21T00:58:41;2.92;;;0.70;;
42632;SDS011;28261;53.304;-6.284;2024-02-21T01:00:45;5.47;;;0.90;;
42632;SDS011;28261;53.304;-6.284;2024-02-21T01:02:49;2.97;;;0.90;;
42632;SDS011;28261;53.304;-6.284;2024-02-21T01:04:54;6.82;;;0.82;;
42632;SDS011;28261;53.304;-6.284;2024-02-21T01:06:57;2.20;;;0.68;;
42632;SDS011;28261;53.304;-6.284;2024-02-21T01:09:01;2.90;;;0.70;;
42632;SDS011;28261;53.304;-6.284;2024-02-21T01:11:07;4.43;;;0.75;;
42632;SDS011;28261;53.304;-6.284;2024-02-21T01:13:10;4.07;;;0.90;;
42632;SDS011;28261;53.304;-6.284;2024-02-21T01:15:14;5.00;;;1.08;;
42632;SDS011;28261;53.304;-6.284;2024-02-21T01:17:17;3.70;;;0.85;;
42632;SDS011;28261;53.304;-6.284;2024-02-21T01:19:21;3.38;;;1.58;;
42632;SDS011;28261;53.304;-6.284;2024-02-21T01:21:25;5.05;;;1.13;;
42632;SDS011;28261;53.304;-6.284;2024-02-21T01:23:29;3.60;;;0.95;;
42632;SDS011;28261;53.304;-6.284;2024-02-21T01:25:32;3.70;;;1.30;;
42632;SDS011;28261;53.304;-6.284;2024-02-21T01:27:38;5.55;;;1.05;;
42632;SDS011;28261;53.304;-6.284;2024-02-21T01:31:44;2.90;;;1.27;;
42632;SDS011;28261;53.304;-6.284;2024-02-21T01:33:48;3.47;;;0.82;;
42632;SDS011;28261;53.304;-6.284;2024-02-21T01:35:51;8.65;;;1.58;;
42632;SDS011;28261;53.304;-6.284;2024-02-21T01:37:56;2.50;;;0.90;;
42632;SDS011;28261;53.304;-6.284;2024-02-21T01:40:00;6.88;;;1.58;;
42632;SDS011;28261;53.304;-6.284;2024-02-21T01:42:04;6.75;;;1.02;;
42632;SDS011;28261;53.304;-6.284;2024-02-21T01:44:09;4.13;;;0.85;;
42632;SDS011;28261;53.304;-6.284;2024-02-21T01:46:13;4.63;;;1.05;;
42632;SDS011;28261;53.304;-6.284;2024-02-21T01:48:17;2.78;;;1.08;;
42632;SDS011;28261;53.304;-6.284;2024-02-21T01:50:21;3.75;;;0.80;;
42632;SDS011;28261;53.304;-6.284;2024-02-21T01:52:26;5.53;;;1.13;;
42632;SDS011;28261;53.304;-6.284;2024-02-21T01:54:31;3.05;;;1.08;;
42632;SDS011;28261;53.304;-6.284;2024-02-21T01:56:35;3.55;;;1.00;;
42632;SDS011;28261;53.304;-6.284;2024-02-21T01:58:38;6.93;;;1.48;;
42632;SDS011;28261;53.304;-6.284;2024-02-21T02:00:46;7.45;;;1.83;;
42632;SDS011;28261;53.304;-6.284;2024-02-21T02:02:51;4.22;;;1.20;;
42632;SDS011;28261;53.304;-6.284;2024-02-21T02:04:55;6.97;;;1.23;;
42632;SDS011;28261;53.304;-6.284;2024-02-21T02:07:00;4.75;;;1.35;;
42632;SDS011;28261;53.304;-6.284;2024-02-21T02:09:08;13.00;;;1.45;;
42632;SDS011;28261;53.304;-6.284;2024-02-21T02:11:13;10.75;;;1.83;;
42632;SDS011;28261;53.304;-6.284;2024-02-21T02:13:17;5.18;;;1.40;;
42632;SDS011;28261;53.304;-6.284;2024-02-21T02:15:20;3.72;;;1.20;;
42632;SDS011;28261;53.304;-6.284;2024-02-21T02:17:26;6.93;;;1.38;;
42632;SDS011;28261;53.304;-6.284;2024-02-21T02:19:30;6.55;;;1.52;;
42632;SDS011;28261;53.304;-6.284;2024-02-21T02:21:37;5.22;;;1.30;;
42632;SDS011;28261;53.304;-6.284;2024-02-21T02:23:44;5.00;;;1.10;;
42632;SDS011;28261;53.304;-6.284;2024-02-21T02:25:48;2.08;;;1.10;;
42632;SDS011;28261;53.304;-6.284;2024-02-21T02:27:54;4.47;;;1.00;;
42632;SDS011;28261;53.304;-6.284;2024-02-21T02:29:58;1.30;;;0.45;;
42632;SDS011;28261;53.304;-6.284;2024-02-21T02:32:01;1.10;;;0.20;;
42632;SDS011;28261;53.304;-6.284;2024-02-21T02:34:05;0.20;;;0.10;;
42632;SDS011;28261;53.304;-6.284;2024-02-21T02:36:09;0.20;;;0.20;;
42632;SDS011;28261;53.304;-6.284;2024-02-21T02:38:13;0.20;;;0.20;;
42632;SDS011;28261;53.304;-6.284;2024-02-21T02:40:18;0.20;;;0.20;;
42632;SDS011;28261;53.304;-6.284;2024-02-21T02:44:26;0.63;;;0.20;;
42632;SDS011;28261;53.304;-6.284;2024-02-21T02:46:29;0.32;;;0.10;;
42632;SDS011;28261;53.304;-6.284;2024-02-21T02:48:33;0.17;;;0.17;;
42632;SDS011;28261;53.304;-6.284;2024-02-21T02:50:37;0.40;;;0.20;;
42632;SDS011;28261;53.304;-6.284;2024-02-21T02:52:41;0.32;;;0.28;;
42632;SDS011;28261;53.304;-6.284;2024-02-21T02:54:44;0.20;;;0.20;;
42632;SDS011;28261;53.304;-6.284;2024-02-21T02:56:55;0.30;;;0.30;;
42632;SDS011;28261;53.304;-6.284;2024-02-21T02:58:59;0.25;;;0.20;;
42632;SDS011;28261;53.304;-6.284;2024-02-21T03:01:03;0.57;;;0.22;;
42632;SDS011;28261;53.304;-6.284;2024-02-21T03:03:07;0.45;;;0.20;;
42632;SDS011;28261;53.304;-6.284;2024-02-21T03:05:12;0.15;;;0.15;;
42632;SDS011;28261;53.304;-6.284;2024-02-21T03:07:16;0.17;;;0.17;;
42632;SDS011;28261;53.304;-6.284;2024-02-21T03:09:20;0.20;;;0.10;;
42632;SDS011;28261;53.304;-6.284;2024-02-21T03:11:23;0.22;;;0.00;;
42632;SDS011;28261;53.304;-6.284;2024-02-21T03:13:33;0.20;;;0.10;;
42632;SDS011;28261;53.304;-6.284;2024-02-21T03:15:37;0.20;;;0.20;;
42632;SDS011;28261;53.304;-6.284;2024-02-21T03:17:40;0.20;;;0.20;;
42632;SDS011;28261;53.304;-6.284;2024-02-21T03:19:44;0.20;;;0.20;;
42632;SDS011;28261;53.304;-6.284;2024-02-21T03:21:48;0.10;;;0.10;;
42632;SDS011;28261;53.304;-6.284;2024-02-21T03:23:52;0.20;;;0.20;;
42632;SDS011;28261;53.304;-6.284;2024-02-21T03:25:56;0.93;;;0.20;;
42632;SDS011;28261;53.304;-6.284;2024-02-21T03:28:00;0.55;;;0.10;;
42632;SDS011;28261;53.304;-6.284;2024-02-21T03:30:06;0.20;;;0.20;;
42632;SDS011;28261;53.304;-6.284;2024-02-21T03:32:10;0.20;;;0.20;;
42632;SDS011;28261;53.304;-6.284;2024-02-21T03:34:14;0.30;;;0.30;;
42632;SDS011;28261;53.304;-6.284;2024-02-21T03:36:18;0.40;;;0.40;;
42632;SDS011;28261;53.304;-6.284;2024-02-21T03:38:21;0.30;;;0.30;;
42632;SDS011;28261;53.304;-6.284;2024-02-21T03:40:25;0.20;;;0.20;;
42632;SDS011;28261;53.304;-6.284;2024-02-21T03:42:29;0.20;;;0.20;;
42632;SDS011;28261;53.304;-6.284;2024-02-21T03:44:33;0.22;;;0.20;;
42632;SDS011;28261;53.304;-6.284;2024-02-21T03:46:39;0.20;;;0.20;;
42632;SDS011;28261;53.304;-6.284;2024-02-21T03:48:43;0.10;;;0.10;;
42632;SDS011;28261;53.304;-6.284;2024-02-21T03:50:47;0.35;;;0.30;;
42632;SDS011;28261;53.304;-6.284;2024-02-21T03:52:51;0.32;;;0.30;;
42632;SDS011;28261;53.304;-6.284;2024-02-21T03:54:55;0.30;;;0.20;;
42632;SDS011;28261;53.304;-6.284;2024-02-21T03:56:58;1.05;;;0.55;;
42632;SDS011;28261;53.304;-6.284;2024-02-21T03:59:02;0.20;;;0.20;;
42632;SDS011;28261;53.304;-6.284;2024-02-21T04:01:06;0.75;;;0.75;;
42632;SDS011;28261;53.304;-6.284;2024-02-21T04:03:11;0.75;;;0.30;;
42632;SDS011;28261;53.304;-6.284;2024-02-21T04:05:15;2.60;;;0.30;;
42632;SDS011;28261;53.304;-6.284;2024-02-21T04:07:19;0.45;;;0.20;;
42632;SDS011;28261;53.304;-6.284;2024-02-21T04:09:22;0.40;;;0.30;;
42632;SDS011;28261;53.304;-6.284;2024-02-21T04:11:27;0.35;;;0.22;;
42632;SDS011;28261;53.304;-6.284;2024-02-21T04:13:31;0.20;;;0.20;;
42632;SDS011;28261;53.304;-6.284;2024-02-21T04:15:34;0.30;;;0.30;;
42632;SDS011;28261;53.304;-6.284;2024-02-21T04:17:38;0.93;;;0.40;;
42632;SDS011;28261;53.304;-6.284;2024-02-21T04:19:43;1.10;;;0.20;;
42632;SDS011;28261;53.304;-6.284;2024-02-21T04:21:47;0.20;;;0.20;;
42632;SDS011;28261;53.304;-6.284;2024-02-21T04:23:50;0.10;;;0.10;;
42632;SDS011;28261;53.304;-6.284;2024-02-21T04:25:54;0.47;;;0.20;;
42632;SDS011;28261;53.304;-6.284;2024-02-21T04:27:57;0.10;;;0.10;;
42632;SDS011;28261;53.304;-6.284;2024-02-21T04:30:01;0.10;;;0.10;;
42632;SDS011;28261;53.304;-6.284;2024-02-21T04:32:06;0.20;;;0.20;;
42632;SDS011;28261;53.304;-6.284;2024-02-21T04:34:10;0.10;;;0.10;;
42632;SDS011;28261;53.304;-6.284;2024-02-21T04:36:16;0.20;;;0.20;;
42632;SDS011;28261;53.304;-6.284;2024-02-21T04:38:20;0.17;;;0.17;;
42632;SDS011;28261;53.304;-6.284;2024-02-21T04:40:23;0.10;;;0.10;;
42632;SDS011;28261;53.304;-6.284;2024-02-21T04:42:27;0.10;;;0.10;;
42632;SDS011;28261;53.304;-6.284;2024-02-21T04:44:31;0.50;;;0.50;;
42632;SDS011;28261;53.304;-6.284;2024-02-21T04:46:35;0.10;;;0.10;;
42632;SDS011;28261;53.304;-6.284;2024-02-21T04:48:38;0.10;;;0.10;;
42632;SDS011;28261;53.304;-6.284;2024-02-21T04:50:42;0.22;;;0.22;;
42632;SDS011;28261;53.304;-6.284;2024-02-21T04:52:47;0.10;;;0.10;;
42632;SDS011;28261;53.304;-6.284;2024-02-21T04:54:51;0.10;;;0.10;;
42632;SDS011;28261;53.304;-6.284;2024-02-21T04:56:55;0.10;;;0.10;;
42632;SDS011;28261;53.304;-6.284;2024-02-21T04:58:59;0.15;;;0.15;;
42632;SDS011;28261;53.304;-6.284;2024-02-21T05:01:03;0.30;;;0.20;;
42632;SDS011;28261;53.304;-6.284;2024-02-21T05:03:07;0.10;;;0.10;;
42632;SDS011;28261;53.304;-6.284;2024-02-21T05:05:11;0.10;;;0.10;;
42632;SDS011;28261;53.304;-6.284;2024-02-21T05:07:17;0.10;;;0.10;;
42632;SDS011;28261;53.304;-6.284;2024-02-21T05:09:23;0.28;;;0.10;;
42632;SDS011;28261;53.304;-6.284;2024-02-21T05:11:25;0.15;;;0.10;;
42632;SDS011;28261;53.304;-6.284;2024-02-21T05:13:29;0.20;;;0.10;;
42632;SDS011;28261;53.304;-6.284;2024-02-21T05:15:33;0.15;;;0.15;;
42632;SDS011;28261;53.304;-6.284;2024-02-21T05:17:37;0.10;;;0.10;;
42632;SDS011;28261;53.304;-6.284;2024-02-21T05:19:41;0.20;;;0.20;;
42632;SDS011;28261;53.304;-6.284;2024-02-21T05:21:45;0.20;;;0.20;;
42632;SDS011;28261;53.304;-6.284;2024-02-21T05:23:49;0.10;;;0.10;;
42632;SDS011;28261;53.304;-6.284;2024-02-21T05:25:53;0.65;;;0.10;;
42632;SDS011;28261;53.304;-6.284;2024-02-21T05:27:57;0.10;;;0.10;;
42632;SDS011;28261;53.304;-6.284;2024-02-21T05:30:04;0.10;;;0.10;;
42632;SDS011;28261;53.304;-6.284;2024-02-21T05:32:09;0.10;;;0.10;;
42632;SDS011;28261;53.304;-6.284;2024-02-21T05:34:13;0.10;;;0.10;;
42632;SDS011;28261;53.304;-6.284;2024-02-21T05:36:17;0.10;;;0.10;;
42632;SDS011;28261;53.304;-6.284;2024-02-21T05:38:20;0.57;;;0.10;;
42632;SDS011;28261;53.304;-6.284;2024-02-21T05:40:23;0.10;;;0.10;;
42632;SDS011;28261;53.304;-6.284;2024-02-21T05:42:28;0.32;;;0.32;;
42632;SDS011;28261;53.304;-6.284;2024-02-21T05:44:32;0.22;;;0.22;;
42632;SDS011;28261;53.304;-6.284;2024-02-21T05:46:36;0.17;;;0.10;;
42632;SDS011;28261;53.304;-6.284;2024-02-21T05:48:40;0.20;;;0.20;;
42632;SDS011;28261;53.304;-6.284;2024-02-21T05:50:44;0.20;;;0.20;;
42632;SDS011;28261;53.304;-6.284;2024-02-21T05:52:48;0.00;;;0.00;;
42632;SDS011;28261;53.304;-6.284;2024-02-21T05:54:52;0.10;;;0.10;;
42632;SDS011;28261;53.304;-6.284;2024-02-21T05:56:56;0.10;;;0.10;;
42632;SDS011;28261;53.304;-6.284;2024-02-21T05:59:01;0.08;;;0.08;;
42632;SDS011;28261;53.304;-6.284;2024-02-21T06:01:05;0.10;;;0.10;;
42632;SDS011;28261;53.304;-6.284;2024-02-21T06:03:09;0.10;;;0.10;;
42632;SDS011;28261;53.304;-6.284;2024-02-21T06:05:16;0.20;;;0.10;;
42632;SDS011;28261;53.304;-6.284;2024-02-21T06:07:20;0.15;;;0.15;;
42632;SDS011;28261;53.304;-6.284;2024-02-21T06:09:24;0.10;;;0.10;;
42632;SDS011;28261;53.304;-6.284;2024-02-21T06:11:28;0.10;;;0.10;;
42632;SDS011;28261;53.304;-6.284;2024-02-21T06:13:32;0.10;;;0.10;;
42632;SDS011;28261;53.304;-6.284;2024-02-21T06:15:37;0.10;;;0.10;;
42632;SDS011;28261;53.304;-6.284;2024-02-21T06:19:44;0.70;;;0.70;;
42632;SDS011;28261;53.304;-6.284;2024-02-21T06:21:48;0.10;;;0.10;;
42632;SDS011;28261;53.304;-6.284;2024-02-21T06:23:52;0.10;;;0.10;;
42632;SDS011;28261;53.304;-6.284;2024-02-21T06:25:56;0.10;;;0.10;;
42632;SDS011;28261;53.304;-6.284;2024-02-21T06:28:00;0.20;;;0.20;;
42632;SDS011;28261;53.304;-6.284;2024-02-21T06:30:04;0.10;;;0.10;;
42632;SDS011;28261;53.304;-6.284;2024-02-21T06:32:10;0.00;;;0.00;;
42632;SDS011;28261;53.304;-6.284;2024-02-21T06:34:14;0.17;;;0.17;;
42632;SDS011;28261;53.304;-6.284;2024-02-21T06:36:19;0.10;;;0.10;;
42632;SDS011;28261;53.304;-6.284;2024-02-21T06:38:23;0.08;;;0.08;;
42632;SDS011;28261;53.304;-6.284;2024-02-21T06:40:27;0.10;;;0.10;;
42632;SDS011;28261;53.304;-6.284;2024-02-21T06:42:33;0.40;;;0.40;;
42632;SDS011;28261;53.304;-6.284;2024-02-21T06:44:37;0.15;;;0.15;;
42632;SDS011;28261;53.304;-6.284;2024-02-21T06:46:42;0.10;;;0.10;;
42632;SDS011;28261;53.304;-6.284;2024-02-21T06:48:47;0.75;;;0.17;;
42632;SDS011;28261;53.304;-6.284;2024-02-21T06:50:52;0.00;;;0.00;;
42632;SDS011;28261;53.304;-6.284;2024-02-21T06:52:56;0.05;;;0.05;;
42632;SDS011;28261;53.304;-6.284;2024-02-21T06:55:00;0.43;;;0.43;;
42632;SDS011;28261;53.304;-6.284;2024-02-21T06:59:08;0.20;;;0.20;;
42632;SDS011;28261;53.304;-6.284;2024-02-21T07:01:11;0.10;;;0.10;;
42632;SDS011;28261;53.304;-6.284;2024-02-21T07:03:15;0.10;;;0.10;;
42632;SDS011;28261;53.304;-6.284;2024-02-21T07:05:20;0.10;;;0.10;;
42632;SDS011;28261;53.304;-6.284;2024-02-21T07:07:25;0.38;;;0.10;;
42632;SDS011;28261;53.304;-6.284;2024-02-21T07:09:29;0.10;;;0.10;;
42632;SDS011;28261;53.304;-6.284;2024-02-21T07:13:37;0.30;;;0.13;;
42632;SDS011;28261;53.304;-6.284;2024-02-21T07:15:42;0.20;;;0.10;;
42632;SDS011;28261;53.304;-6.284;2024-02-21T07:17:46;0.30;;;0.25;;
42632;SDS011;28261;53.304;-6.284;2024-02-21T07:19:50;0.10;;;0.10;;
42632;SDS011;28261;53.304;-6.284;2024-02-21T07:21:55;0.20;;;0.20;;
42632;SDS011;28261;53.304;-6.284;2024-02-21T07:23:59;0.10;;;0.10;;
42632;SDS011;28261;53.304;-6.284;2024-02-21T07:26:04;0.55;;;0.20;;
42632;SDS011;28261;53.304;-6.284;2024-02-21T07:28:07;0.35;;;0.10;;
42632;SDS011;28261;53.304;-6.284;2024-02-21T07:30:12;0.32;;;0.10;;
42632;SDS011;28261;53.304;-6.284;2024-02-21T07:32:18;0.22;;;0.22;;
42632;SDS011;28261;53.304;-6.284;2024-02-21T07:34:22;0.10;;;0.10;;
42632;SDS011;28261;53.304;-6.284;2024-02-21T07:36:28;1.77;;;0.50;;
42632;SDS011;28261;53.304;-6.284;2024-02-21T07:38:34;0.43;;;0.30;;
42632;SDS011;28261;53.304;-6.284;2024-02-21T07:40:38;0.43;;;0.30;;
42632;SDS011;28261;53.304;-6.284;2024-02-21T07:42:42;0.10;;;0.10;;
42632;SDS011;28261;53.304;-6.284;2024-02-21T07:44:51;1.10;;;0.28;;
42632;SDS011;28261;53.304;-6.284;2024-02-21T07:46:55;0.60;;;0.20;;
42632;SDS011;28261;53.304;-6.284;2024-02-21T07:49:00;1.00;;;0.30;;
42632;SDS011;28261;53.304;-6.284;2024-02-21T07:51:04;0.20;;;0.20;;
42632;SDS011;28261;53.304;-6.284;2024-02-21T07:53:08;0.47;;;0.47;;
42632;SDS011;28261;53.304;-6.284;2024-02-21T07:55:13;0.68;;;0.28;;
42632;SDS011;28261;53.304;-6.284;2024-02-21T07:57:16;0.10;;;0.10;;
42632;SDS011;28261;53.304;-6.284;2024-02-21T07:59:20;0.17;;;0.17;;
42632;SDS011;28261;53.304;-6.284;2024-02-21T08:01:28;0.25;;;0.25;;
42632;SDS011;28261;53.304;-6.284;2024-02-21T08:03:31;0.82;;;0.20;;
42632;SDS011;28261;53.304;-6.284;2024-02-21T08:05:35;0.20;;;0.20;;
42632;SDS011;28261;53.304;-6.284;2024-02-21T08:07:39;0.40;;;0.30;;
42632;SDS011;28261;53.304;-6.284;2024-02-21T08:09:42;0.30;;;0.22;;
42632;SDS011;28261;53.304;-6.284;2024-02-21T08:11:47;0.10;;;0.10;;
42632;SDS011;28261;53.304;-6.284;2024-02-21T08:13:51;0.10;;;0.10;;
42632;SDS011;28261;53.304;-6.284;2024-02-21T08:15:55;0.10;;;0.10;;
42632;SDS011;28261;53.304;-6.284;2024-02-21T08:17:59;0.10;;;0.10;;
42632;SDS011;28261;53.304;-6.284;2024-02-21T08:20:04;0.10;;;0.10;;
42632;SDS011;28261;53.304;-6.284;2024-02-21T08:22:08;0.45;;;0.10;;
42632;SDS011;28261;53.304;-6.284;2024-02-21T08:24:12;0.10;;;0.10;;
42632;SDS011;28261;53.304;-6.284;2024-02-21T08:26:16;1.35;;;0.25;;
42632;SDS011;28261;53.304;-6.284;2024-02-21T08:28:21;0.10;;;0.10;;
42632;SDS011;28261;53.304;-6.284;2024-02-21T08:30:25;0.13;;;0.13;;
42632;SDS011;28261;53.304;-6.284;2024-02-21T08:32:29;0.10;;;0.10;;
42632;SDS011;28261;53.304;-6.284;2024-02-21T08:34:33;0.30;;;0.10;;
42632;SDS011;28261;53.304;-6.284;2024-02-21T08:36:37;0.60;;;0.60;;
42632;SDS011;28261;53.304;-6.284;2024-02-21T08:38:41;0.35;;;0.17;;
42632;SDS011;28261;53.304;-6.284;2024-02-21T08:40:45;0.40;;;0.40;;
42632;SDS011;28261;53.304;-6.284;2024-02-21T08:42:49;0.10;;;0.10;;
42632;SDS011;28261;53.304;-6.284;2024-02-21T08:44:54;0.55;;;0.10;;
42632;SDS011;28261;53.304;-6.284;2024-02-21T08:46:58;0.25;;;0.15;;
42632;SDS011;28261;53.304;-6.284;2024-02-21T08:49:06;0.93;;;0.13;;
42632;SDS011;28261;53.304;-6.284;2024-02-21T08:51:10;0.40;;;0.35;;
42632;SDS011;28261;53.304;-6.284;2024-02-21T08:53:14;0.10;;;0.10;;
42632;SDS011;28261;53.304;-6.284;2024-02-21T08:55:17;1.38;;;0.80;;
42632;SDS011;28261;53.304;-6.284;2024-02-21T08:57:21;0.30;;;0.30;;
42632;SDS011;28261;53.304;-6.284;2024-02-21T08:59:25;0.60;;;0.60;;
42632;SDS011;28261;53.304;-6.284;2024-02-21T09:01:31;0.35;;;0.35;;
42632;SDS011;28261;53.304;-6.284;2024-02-21T09:03:37;0.20;;;0.20;;
42632;SDS011;28261;53.304;-6.284;2024-02-21T09:05:44;0.65;;;0.22;;
42632;SDS011;28261;53.304;-6.284;2024-02-21T09:07:48;0.30;;;0.10;;
42632;SDS011;28261;53.304;-6.284;2024-02-21T09:09:52;0.50;;;0.20;;
42632;SDS011;28261;53.304;-6.284;2024-02-21T09:11:56;1.75;;;0.20;;
42632;SDS011;28261;53.304;-6.284;2024-02-21T09:14:07;0.30;;;0.20;;
42632;SDS011;28261;53.304;-6.284;2024-02-21T09:16:11;0.80;;;0.20;;
42632;SDS011;28261;53.304;-6.284;2024-02-21T09:18:16;1.10;;;0.20;;
42632;SDS011;28261;53.304;-6.284;2024-02-21T09:20:20;0.13;;;0.13;;
42632;SDS011;28261;53.304;-6.284;2024-02-21T09:22:24;0.22;;;0.10;;
42632;SDS011;28261;53.304;-6.284;2024-02-21T09:24:28;0.52;;;0.38;;
42632;SDS011;28261;53.304;-6.284;2024-02-21T09:26:32;0.28;;;0.20;;
42632;SDS011;28261;53.304;-6.284;2024-02-21T09:28:36;1.17;;;0.30;;
42632;SDS011;28261;53.304;-6.284;2024-02-21T09:30:40;0.45;;;0.28;;
42632;SDS011;28261;53.304;-6.284;2024-02-21T09:32:44;2.17;;;0.60;;
42632;SDS011;28261;53.304;-6.284;2024-02-21T09:34:50;1.00;;;0.43;;
42632;SDS011;28261;53.304;-6.284;2024-02-21T09:37:01;0.35;;;0.20;;
42632;SDS011;28261;53.304;-6.284;2024-02-21T09:39:05;0.20;;;0.20;;
42632;SDS011;28261;53.304;-6.284;2024-02-21T09:41:13;2.38;;;0.30;;
42632;SDS011;28261;53.304;-6.284;2024-02-21T09:43:26;0.47;;;0.30;;
42632;SDS011;28261;53.304;-6.284;2024-02-21T09:45:29;0.63;;;0.30;;
42632;SDS011;28261;53.304;-6.284;2024-02-21T09:47:34;0.20;;;0.20;;
42632;SDS011;28261;53.304;-6.284;2024-02-21T09:49:47;0.52;;;0.25;;
42632;SDS011;28261;53.304;-6.284;2024-02-21T09:51:53;2.05;;;0.50;;
42632;SDS011;28261;53.304;-6.284;2024-02-21T09:53:57;0.30;;;0.20;;
42632;SDS011;28261;53.304;-6.284;2024-02-21T09:56:16;0.30;;;0.30;;
42632;SDS011;28261;53.304;-6.284;2024-02-21T09:58:20;0.85;;;0.65;;
42632;SDS011;28261;53.304;-6.284;2024-02-21T10:00:24;0.52;;;0.22;;
42632;SDS011;28261;53.304;-6.284;2024-02-21T10:02:29;0.20;;;0.20;;
42632;SDS011;28261;53.304;-6.284;2024-02-21T10:04:33;0.20;;;0.20;;
42632;SDS011;28261;53.304;-6.284;2024-02-21T10:06:38;0.20;;;0.20;;
42632;SDS011;28261;53.304;-6.284;2024-02-21T10:08:44;0.65;;;0.20;;
42632;SDS011;28261;53.304;-6.284;2024-02-21T10:10:55;0.65;;;0.10;;
42632;SDS011;28261;53.304;-6.284;2024-02-21T10:13:02;0.20;;;0.20;;
42632;SDS011;28261;53.304;-6.284;2024-02-21T10:15:06;0.55;;;0.20;;
42632;SDS011;28261;53.304;-6.284;2024-02-21T10:17:15;0.77;;;0.60;;
42632;SDS011;28261;53.304;-6.284;2024-02-21T10:19:21;1.13;;;0.25;;
42632;SDS011;28261;53.304;-6.284;2024-02-21T10:21:25;0.35;;;0.20;;
42632;SDS011;28261;53.304;-6.284;2024-02-21T10:23:29;0.20;;;0.20;;
42632;SDS011;28261;53.304;-6.284;2024-02-21T10:25:34;0.55;;;0.20;;
42632;SDS011;28261;53.304;-6.284;2024-02-21T10:27:40;0.47;;;0.30;;
42632;SDS011;28261;53.304;-6.284;2024-02-21T10:29:48;0.65;;;0.65;;
42632;SDS011;28261;53.304;-6.284;2024-02-21T10:31:52;0.22;;;0.20;;
42632;SDS011;28261;53.304;-6.284;2024-02-21T10:34:06;1.13;;;0.90;;
42632;SDS011;28261;53.304;-6.284;2024-02-21T10:36:11;0.30;;;0.30;;
42632;SDS011;28261;53.304;-6.284;2024-02-21T10:40:18;0.40;;;0.22;;
42632;SDS011;28261;53.304;-6.284;2024-02-21T10:42:23;0.10;;;0.10;;
42632;SDS011;28261;53.304;-6.284;2024-02-21T10:44:33;0.30;;;0.30;;
42632;SDS011;28261;53.304;-6.284;2024-02-21T10:46:39;0.47;;;0.30;;
42632;SDS011;28261;53.304;-6.284;2024-02-21T10:48:46;0.32;;;0.20;;
42632;SDS011;28261;53.304;-6.284;2024-02-21T10:50:53;0.20;;;0.20;;
42632;SDS011;28261;53.304;-6.284;2024-02-21T10:53:05;0.20;;;0.20;;
42632;SDS011;28261;53.304;-6.284;2024-02-21T10:55:20;0.20;;;0.20;;
42632;SDS011;28261;53.304;-6.284;2024-02-21T10:57:30;0.85;;;0.25;;
42632;SDS011;28261;53.304;-6.284;2024-02-21T10:59:35;0.47;;;0.30;;
42632;SDS011;28261;53.304;-6.284;2024-02-21T11:01:40;0.22;;;0.10;;
42632;SDS011;28261;53.304;-6.284;2024-02-21T11:03:45;1.17;;;0.32;;
42632;SDS011;28261;53.304;-6.284;2024-02-21T11:05:52;0.80;;;0.30;;
42632;SDS011;28261;53.304;-6.284;2024-02-21T11:07:57;0.28;;;0.25;;
42632;SDS011;28261;53.304;-6.284;2024-02-21T11:10:01;0.57;;;0.32;;
42632;SDS011;28261;53.304;-6.284;2024-02-21T11:12:06;1.67;;;0.20;;
42632;SDS011;28261;53.304;-6.284;2024-02-21T11:16:22;0.40;;;0.40;;
42632;SDS011;28261;53.304;-6.284;2024-02-21T11:18:26;0.50;;;0.22;;
42632;SDS011;28261;53.304;-6.284;2024-02-21T11:20:33;2.67;;;0.40;;
42632;SDS011;28261;53.304;-6.284;2024-02-21T11:22:41;1.13;;;0.22;;
42632;SDS011;28261;53.304;-6.284;2024-02-21T11:24:45;0.43;;;0.20;;
42632;SDS011;28261;53.304;-6.284;2024-02-21T11:26:49;0.30;;;0.30;;
42632;SDS011;28261;53.304;-6.284;2024-02-21T11:28:56;0.65;;;0.20;;
42632;SDS011;28261;53.304;-6.284;2024-02-21T11:31:10;0.95;;;0.20;;
42632;SDS011;28261;53.304;-6.284;2024-02-21T11:33:16;0.43;;;0.20;;
42632;SDS011;28261;53.304;-6.284;2024-02-21T11:35:21;0.20;;;0.20;;
42632;SDS011;28261;53.304;-6.284;2024-02-21T11:37:24;0.98;;;0.32;;
42632;SDS011;28261;53.304;-6.284;2024-02-21T11:39:30;0.85;;;0.30;;
42632;SDS011;28261;53.304;-6.284;2024-02-21T11:41:33;1.08;;;0.30;;
42632;SDS011;28261;53.304;-6.284;2024-02-21T11:43:37;1.50;;;0.40;;
42632;SDS011;28261;53.304;-6.284;2024-02-21T11:45:43;0.50;;;0.45;;
42632;SDS011;28261;53.304;-6.284;2024-02-21T11:47:48;0.93;;;0.47;;
42632;SDS011;28261;53.304;-6.284;2024-02-21T11:49:52;1.02;;;0.20;;
42632;SDS011;28261;53.304;-6.284;2024-02-21T11:51:57;2.90;;;0.40;;
42632;SDS011;28261;53.304;-6.284;2024-02-21T11:54:02;0.35;;;0.30;;
42632;SDS011;28261;53.304;-6.284;2024-02-21T11:56:06;0.45;;;0.17;;
42632;SDS011;28261;53.304;-6.284;2024-02-21T11:58:09;0.80;;;0.80;;
42632;SDS011;28261;53.304;-6.284;2024-02-21T12:00:14;3.08;;;0.50;;
42632;SDS011;28261;53.304;-6.284;2024-02-21T12:02:19;1.35;;;0.43;;
42632;SDS011;28261;53.304;-6.284;2024-02-21T12:04:25;3.38;;;0.35;;
42632;SDS011;28261;53.304;-6.284;2024-02-21T12:06:29;0.88;;;0.80;;
42632;SDS011;28261;53.304;-6.284;2024-02-21T12:08:40;0.68;;;0.40;;
42632;SDS011;28261;53.304;-6.284;2024-02-21T12:10:45;1.27;;;0.30;;
42632;SDS011;28261;53.304;-6.284;2024-02-21T12:12:53;0.63;;;0.20;;
42632;SDS011;28261;53.304;-6.284;2024-02-21T12:15:08;0.47;;;0.28;;
42632;SDS011;28261;53.304;-6.284;2024-02-21T12:17:12;0.98;;;0.40;;
42632;SDS011;28261;53.304;-6.284;2024-02-21T12:19:14;0.88;;;0.32;;
42632;SDS011;28261;53.304;-6.284;2024-02-21T12:21:23;2.08;;;0.50;;
42632;SDS011;28261;53.304;-6.284;2024-02-21T12:23:27;2.08;;;0.40;;
42632;SDS011;28261;53.304;-6.284;2024-02-21T12:25:31;1.23;;;0.45;;
42632;SDS011;28261;53.304;-6.284;2024-02-21T12:27:34;1.05;;;0.22;;
42632;SDS011;28261;53.304;-6.284;2024-02-21T12:29:38;0.13;;;0.10;;
42632;SDS011;28261;53.304;-6.284;2024-02-21T12:31:43;1.85;;;0.60;;
42632;SDS011;28261;53.304;-6.284;2024-02-21T12:33:48;1.33;;;0.30;;
42632;SDS011;28261;53.304;-6.284;2024-02-21T12:35:54;1.67;;;0.60;;